sensor_id;sensor_type;location;lat;lon;timestamp;P1;durP1;ratioP1;P2;durP2;ratioP2
31716;SDS011;18301;51.076;17.046;2022-08-20T00:04:19;16.75;;;7.53;;
31716;SDS011;18301;51.076;17.046;2022-08-20T00:09:21;16.60;;;8.48;;
31716;SDS011;18301;51.076;17.046;2022-08-20T00:14:23;13.77;;;7.82;;
31716;SDS011;18301;51.076;17.046;2022-08-20T00:19:24;11.93;;;7.28;;
31716;SDS011;18301;51.076;17.046;2022-08-20T00:24:27;11.25;;;6.85;;
31716;SDS011;18301;51.076;17.046;2022-08-20T00:29:29;12.77;;;7.97;;
31716;SDS011;18301;51.076;17.046;2022-08-20T00:34:31;11.20;;;6.95;;
31716;SDS011;18301;51.076;17.046;2022-08-20T00:39:33;14.60;;;7.40;;
31716;SDS011;18301;51.076;17.046;2022-08-20T00:44:35;12.30;;;6.60;;
31716;SDS011;18301;51.076;17.046;2022-08-20T00:49:37;12.50;;;6.25;;
31716;SDS011;18301;51.076;17.046;2022-08-20T00:59:56;14.95;;;6.85;;
31716;SDS011;18301;51.076;17.046;2022-08-20T01:04:58;13.82;;;6.57;;
31716;SDS011;18301;51.076;17.046;2022-08-20T01:10:03;10.27;;;6.70;;
31716;SDS011;18301;51.076;17.046;2022-08-20T01:15:11;10.85;;;7.32;;
31716;SDS011;18301;51.076;17.046;2022-08-20T01:20:30;11.68;;;7.20;;
31716;SDS011;18301;51.076;17.046;2022-08-20T01:30:41;15.90;;;7.32;;
31716;SDS011;18301;51.076;17.046;2022-08-20T01:35:43;13.05;;;6.90;;
31716;SDS011;18301;51.076;17.046;2022-08-20T01:46:08;15.15;;;7.25;;
31716;SDS011;18301;51.076;17.046;2022-08-20T01:51:17;16.98;;;7.40;;
31716;SDS011;18301;51.076;17.046;2022-08-20T01:56:26;14.48;;;7.00;;
31716;SDS011;18301;51.076;17.046;2022-08-20T02:01:36;12.77;;;7.00;;
31716;SDS011;18301;51.076;17.046;2022-08-20T02:06:48;17.75;;;8.38;;
31716;SDS011;18301;51.076;17.046;2022-08-20T02:11:58;11.75;;;7.20;;
31716;SDS011;18301;51.076;17.046;2022-08-20T02:17:01;12.50;;;7.32;;
31716;SDS011;18301;51.076;17.046;2022-08-20T02:27:21;12.35;;;7.30;;
31716;SDS011;18301;51.076;17.046;2022-08-20T02:32:23;15.43;;;7.78;;
31716;SDS011;18301;51.076;17.046;2022-08-20T02:37:35;12.00;;;7.63;;
31716;SDS011;18301;51.076;17.046;2022-08-20T02:42:37;14.25;;;7.72;;
31716;SDS011;18301;51.076;17.046;2022-08-20T02:47:43;15.88;;;7.82;;
31716;SDS011;18301;51.076;17.046;2022-08-20T02:52:46;18.15;;;8.65;;
31716;SDS011;18301;51.076;17.046;2022-08-20T02:57:53;13.93;;;8.30;;
31716;SDS011;18301;51.076;17.046;2022-08-20T03:08:02;18.25;;;11.60;;
31716;SDS011;18301;51.076;17.046;2022-08-20T03:13:04;21.05;;;15.02;;
31716;SDS011;18301;51.076;17.046;2022-08-20T03:18:11;25.02;;;16.10;;
31716;SDS011;18301;51.076;17.046;2022-08-20T03:23:14;26.80;;;18.55;;
31716;SDS011;18301;51.076;17.046;2022-08-20T03:28:17;25.33;;;19.50;;
31716;SDS011;18301;51.076;17.046;2022-08-20T03:33:19;32.60;;;23.75;;
31716;SDS011;18301;51.076;17.046;2022-08-20T03:38:22;31.63;;;23.63;;
31716;SDS011;18301;51.076;17.046;2022-08-20T03:43:32;34.47;;;23.42;;
31716;SDS011;18301;51.076;17.046;2022-08-20T03:48:35;32.88;;;24.50;;
31716;SDS011;18301;51.076;17.046;2022-08-20T03:53:37;38.30;;;24.92;;
31716;SDS011;18301;51.076;17.046;2022-08-20T03:58:39;30.98;;;23.88;;
31716;SDS011;18301;51.076;17.046;2022-08-20T04:03:40;31.73;;;23.48;;
31716;SDS011;18301;51.076;17.046;2022-08-20T04:08:42;33.95;;;24.48;;
31716;SDS011;18301;51.076;17.046;2022-08-20T04:13:44;32.58;;;24.50;;
31716;SDS011;18301;51.076;17.046;2022-08-20T04:18:45;28.92;;;21.67;;
31716;SDS011;18301;51.076;17.046;2022-08-20T04:24:03;30.80;;;21.60;;
31716;SDS011;18301;51.076;17.046;2022-08-20T04:29:05;32.92;;;22.55;;
31716;SDS011;18301;51.076;17.046;2022-08-20T04:34:08;28.88;;;19.48;;
31716;SDS011;18301;51.076;17.046;2022-08-20T04:39:09;27.67;;;17.52;;
31716;SDS011;18301;51.076;17.046;2022-08-20T04:44:11;27.90;;;16.63;;
31716;SDS011;18301;51.076;17.046;2022-08-20T04:49:13;23.58;;;16.17;;
31716;SDS011;18301;51.076;17.046;2022-08-20T04:54:14;25.73;;;15.95;;
31716;SDS011;18301;51.076;17.046;2022-08-20T04:59:16;25.60;;;17.83;;
31716;SDS011;18301;51.076;17.046;2022-08-20T05:04:18;23.98;;;16.95;;
31716;SDS011;18301;51.076;17.046;2022-08-20T05:09:19;25.00;;;16.77;;
31716;SDS011;18301;51.076;17.046;2022-08-20T05:14:21;25.70;;;19.10;;
31716;SDS011;18301;51.076;17.046;2022-08-20T05:19:22;38.35;;;27.40;;
31716;SDS011;18301;51.076;17.046;2022-08-20T05:24:24;42.90;;;29.15;;
31716;SDS011;18301;51.076;17.046;2022-08-20T05:29:26;44.33;;;31.05;;
31716;SDS011;18301;51.076;17.046;2022-08-20T05:34:28;39.15;;;27.08;;
31716;SDS011;18301;51.076;17.046;2022-08-20T05:39:30;41.80;;;27.15;;
31716;SDS011;18301;51.076;17.046;2022-08-20T05:44:37;39.08;;;25.90;;
31716;SDS011;18301;51.076;17.046;2022-08-20T05:49:39;45.22;;;28.13;;
31716;SDS011;18301;51.076;17.046;2022-08-20T05:54:41;41.17;;;27.70;;
31716;SDS011;18301;51.076;17.046;2022-08-20T05:59:42;37.72;;;26.30;;
31716;SDS011;18301;51.076;17.046;2022-08-20T06:04:44;38.88;;;26.92;;
31716;SDS011;18301;51.076;17.046;2022-08-20T06:09:56;43.67;;;27.58;;
31716;SDS011;18301;51.076;17.046;2022-08-20T06:14:58;43.17;;;27.40;;
31716;SDS011;18301;51.076;17.046;2022-08-20T06:20:00;40.42;;;26.63;;
31716;SDS011;18301;51.076;17.046;2022-08-20T06:25:07;44.25;;;26.38;;
31716;SDS011;18301;51.076;17.046;2022-08-20T06:30:11;39.65;;;25.75;;
31716;SDS011;18301;51.076;17.046;2022-08-20T06:35:14;41.03;;;25.95;;
31716;SDS011;18301;51.076;17.046;2022-08-20T06:40:24;35.92;;;24.83;;
31716;SDS011;18301;51.076;17.046;2022-08-20T06:45:30;38.10;;;24.80;;
31716;SDS011;18301;51.076;17.046;2022-08-20T06:50:34;36.40;;;25.35;;
31716;SDS011;18301;51.076;17.046;2022-08-20T06:55:52;35.00;;;22.50;;
31716;SDS011;18301;51.076;17.046;2022-08-20T07:00:55;33.67;;;21.70;;
31716;SDS011;18301;51.076;17.046;2022-08-20T07:05:57;37.13;;;25.02;;
31716;SDS011;18301;51.076;17.046;2022-08-20T07:10:59;41.92;;;26.15;;
31716;SDS011;18301;51.076;17.046;2022-08-20T07:16:02;43.13;;;26.40;;
31716;SDS011;18301;51.076;17.046;2022-08-20T07:21:05;43.58;;;27.38;;
31716;SDS011;18301;51.076;17.046;2022-08-20T07:26:06;43.92;;;26.77;;
31716;SDS011;18301;51.076;17.046;2022-08-20T07:31:08;44.80;;;28.48;;
31716;SDS011;18301;51.076;17.046;2022-08-20T07:36:31;44.83;;;29.90;;
31716;SDS011;18301;51.076;17.046;2022-08-20T07:41:33;39.03;;;25.88;;
31716;SDS011;18301;51.076;17.046;2022-08-20T07:46:35;48.08;;;30.02;;
31716;SDS011;18301;51.076;17.046;2022-08-20T07:51:36;44.55;;;27.90;;
31716;SDS011;18301;51.076;17.046;2022-08-20T07:56:38;43.00;;;26.58;;
31716;SDS011;18301;51.076;17.046;2022-08-20T08:01:40;38.42;;;24.42;;
31716;SDS011;18301;51.076;17.046;2022-08-20T08:06:42;39.65;;;25.73;;
31716;SDS011;18301;51.076;17.046;2022-08-20T08:11:46;38.28;;;25.05;;
31716;SDS011;18301;51.076;17.046;2022-08-20T08:16:51;37.80;;;25.42;;
31716;SDS011;18301;51.076;17.046;2022-08-20T08:21:55;35.42;;;23.80;;
31716;SDS011;18301;51.076;17.046;2022-08-20T08:26:58;40.55;;;26.83;;
31716;SDS011;18301;51.076;17.046;2022-08-20T08:32:01;35.85;;;23.33;;
31716;SDS011;18301;51.076;17.046;2022-08-20T08:37:04;33.63;;;22.17;;
31716;SDS011;18301;51.076;17.046;2022-08-20T08:42:14;33.17;;;22.52;;
31716;SDS011;18301;51.076;17.046;2022-08-20T08:47:28;32.88;;;23.23;;
31716;SDS011;18301;51.076;17.046;2022-08-20T08:52:36;37.20;;;25.00;;
31716;SDS011;18301;51.076;17.046;2022-08-20T08:57:42;32.40;;;21.48;;
31716;SDS011;18301;51.076;17.046;2022-08-20T09:03:06;35.03;;;21.05;;
31716;SDS011;18301;51.076;17.046;2022-08-20T09:08:17;30.33;;;20.85;;
31716;SDS011;18301;51.076;17.046;2022-08-20T09:13:24;32.25;;;22.50;;
31716;SDS011;18301;51.076;17.046;2022-08-20T09:18:26;33.30;;;22.48;;
31716;SDS011;18301;51.076;17.046;2022-08-20T09:23:28;29.95;;;21.67;;
31716;SDS011;18301;51.076;17.046;2022-08-20T09:28:29;31.38;;;21.20;;
31716;SDS011;18301;51.076;17.046;2022-08-20T09:33:35;28.67;;;20.83;;
31716;SDS011;18301;51.076;17.046;2022-08-20T09:38:36;31.92;;;21.33;;
31716;SDS011;18301;51.076;17.046;2022-08-20T09:43:38;34.55;;;22.05;;
31716;SDS011;18301;51.076;17.046;2022-08-20T09:48:41;30.35;;;20.63;;
31716;SDS011;18301;51.076;17.046;2022-08-20T09:53:42;32.22;;;20.35;;
31716;SDS011;18301;51.076;17.046;2022-08-20T10:03:49;26.55;;;19.33;;
31716;SDS011;18301;51.076;17.046;2022-08-20T10:08:51;33.47;;;23.05;;
31716;SDS011;18301;51.076;17.046;2022-08-20T10:13:53;28.10;;;20.27;;
31716;SDS011;18301;51.076;17.046;2022-08-20T10:18:54;28.77;;;21.13;;
31716;SDS011;18301;51.076;17.046;2022-08-20T10:23:57;31.50;;;20.75;;
31716;SDS011;18301;51.076;17.046;2022-08-20T10:28:59;32.58;;;22.55;;
31716;SDS011;18301;51.076;17.046;2022-08-20T10:34:01;27.38;;;18.83;;
31716;SDS011;18301;51.076;17.046;2022-08-20T10:39:02;28.70;;;20.42;;
31716;SDS011;18301;51.076;17.046;2022-08-20T10:44:05;27.38;;;19.70;;
31716;SDS011;18301;51.076;17.046;2022-08-20T10:49:07;27.67;;;20.45;;
31716;SDS011;18301;51.076;17.046;2022-08-20T10:54:09;27.48;;;19.70;;
31716;SDS011;18301;51.076;17.046;2022-08-20T10:59:12;29.90;;;20.55;;
31716;SDS011;18301;51.076;17.046;2022-08-20T11:04:14;29.75;;;20.42;;
31716;SDS011;18301;51.076;17.046;2022-08-20T11:09:16;28.65;;;19.25;;
31716;SDS011;18301;51.076;17.046;2022-08-20T11:14:17;26.75;;;19.80;;
31716;SDS011;18301;51.076;17.046;2022-08-20T11:19:19;24.40;;;18.80;;
31716;SDS011;18301;51.076;17.046;2022-08-20T11:24:21;29.95;;;21.52;;
31716;SDS011;18301;51.076;17.046;2022-08-20T11:29:23;26.80;;;19.58;;
31716;SDS011;18301;51.076;17.046;2022-08-20T11:34:25;27.50;;;20.80;;
31716;SDS011;18301;51.076;17.046;2022-08-20T11:39:26;25.20;;;18.55;;
31716;SDS011;18301;51.076;17.046;2022-08-20T11:44:28;25.20;;;19.05;;
31716;SDS011;18301;51.076;17.046;2022-08-20T11:49:31;30.70;;;21.73;;
31716;SDS011;18301;51.076;17.046;2022-08-20T11:54:34;29.50;;;22.23;;
31716;SDS011;18301;51.076;17.046;2022-08-20T11:59:40;28.05;;;20.50;;
31716;SDS011;18301;51.076;17.046;2022-08-20T12:04:42;28.60;;;20.70;;
31716;SDS011;18301;51.076;17.046;2022-08-20T12:09:44;26.90;;;19.00;;
31716;SDS011;18301;51.076;17.046;2022-08-20T12:14:52;26.23;;;19.07;;
31716;SDS011;18301;51.076;17.046;2022-08-20T12:19:56;24.38;;;18.13;;
31716;SDS011;18301;51.076;17.046;2022-08-20T12:24:59;23.08;;;16.90;;
31716;SDS011;18301;51.076;17.046;2022-08-20T12:30:02;23.95;;;18.35;;
31716;SDS011;18301;51.076;17.046;2022-08-20T12:35:08;24.00;;;17.27;;
31716;SDS011;18301;51.076;17.046;2022-08-20T12:40:14;29.05;;;18.77;;
31716;SDS011;18301;51.076;17.046;2022-08-20T12:45:31;30.63;;;19.58;;
31716;SDS011;18301;51.076;17.046;2022-08-20T12:50:34;24.27;;;18.88;;
31716;SDS011;18301;51.076;17.046;2022-08-20T12:55:37;25.40;;;18.52;;
31716;SDS011;18301;51.076;17.046;2022-08-20T13:00:41;22.77;;;17.08;;
31716;SDS011;18301;51.076;17.046;2022-08-20T13:05:51;23.33;;;17.80;;
31716;SDS011;18301;51.076;17.046;2022-08-20T13:10:52;26.08;;;18.02;;
31716;SDS011;18301;51.076;17.046;2022-08-20T13:15:54;21.63;;;16.38;;
31716;SDS011;18301;51.076;17.046;2022-08-20T13:20:55;24.20;;;15.73;;
31716;SDS011;18301;51.076;17.046;2022-08-20T13:25:57;23.45;;;14.57;;
31716;SDS011;18301;51.076;17.046;2022-08-20T13:30:59;22.52;;;16.98;;
31716;SDS011;18301;51.076;17.046;2022-08-20T13:36:02;25.60;;;16.30;;
31716;SDS011;18301;51.076;17.046;2022-08-20T13:41:04;25.88;;;17.83;;
31716;SDS011;18301;51.076;17.046;2022-08-20T13:46:05;29.02;;;18.90;;
31716;SDS011;18301;51.076;17.046;2022-08-20T13:51:07;22.35;;;14.57;;
31716;SDS011;18301;51.076;17.046;2022-08-20T13:56:09;24.80;;;17.83;;
31716;SDS011;18301;51.076;17.046;2022-08-20T14:01:10;21.52;;;14.98;;
31716;SDS011;18301;51.076;17.046;2022-08-20T14:06:12;24.63;;;15.68;;
31716;SDS011;18301;51.076;17.046;2022-08-20T14:11:14;21.20;;;14.93;;
31716;SDS011;18301;51.076;17.046;2022-08-20T14:16:18;21.73;;;15.07;;
31716;SDS011;18301;51.076;17.046;2022-08-20T14:21:28;30.50;;;16.85;;
31716;SDS011;18301;51.076;17.046;2022-08-20T14:26:29;25.75;;;16.83;;
31716;SDS011;18301;51.076;17.046;2022-08-20T14:31:31;24.08;;;15.73;;
31716;SDS011;18301;51.076;17.046;2022-08-20T14:36:33;21.33;;;15.18;;
31716;SDS011;18301;51.076;17.046;2022-08-20T14:41:34;21.98;;;14.95;;
31716;SDS011;18301;51.076;17.046;2022-08-20T14:46:36;23.45;;;14.82;;
31716;SDS011;18301;51.076;17.046;2022-08-20T14:51:37;25.67;;;17.25;;
31716;SDS011;18301;51.076;17.046;2022-08-20T14:56:39;24.17;;;15.65;;
31716;SDS011;18301;51.076;17.046;2022-08-20T15:01:41;22.90;;;15.68;;
31716;SDS011;18301;51.076;17.046;2022-08-20T15:06:43;21.98;;;15.55;;
31716;SDS011;18301;51.076;17.046;2022-08-20T15:11:46;12.65;;;7.45;;
31716;SDS011;18301;51.076;17.046;2022-08-20T15:16:48;18.42;;;8.45;;
31716;SDS011;18301;51.076;17.046;2022-08-20T15:21:49;15.45;;;6.85;;
31716;SDS011;18301;51.076;17.046;2022-08-20T15:26:51;15.13;;;6.85;;
31716;SDS011;18301;51.076;17.046;2022-08-20T15:31:53;13.23;;;6.70;;
31716;SDS011;18301;51.076;17.046;2022-08-20T15:36:55;17.95;;;7.95;;
31716;SDS011;18301;51.076;17.046;2022-08-20T15:41:57;19.17;;;8.38;;
31716;SDS011;18301;51.076;17.046;2022-08-20T15:47:11;11.98;;;7.78;;
31716;SDS011;18301;51.076;17.046;2022-08-20T15:52:20;12.98;;;8.05;;
31716;SDS011;18301;51.076;17.046;2022-08-20T16:13:58;7.55;;;4.88;;
31716;SDS011;18301;51.076;17.046;2022-08-20T16:19:26;6.22;;;4.32;;
31716;SDS011;18301;51.076;17.046;2022-08-20T16:24:32;6.32;;;4.53;;
31716;SDS011;18301;51.076;17.046;2022-08-20T16:29:53;5.63;;;4.13;;
31716;SDS011;18301;51.076;17.046;2022-08-20T16:35:06;7.57;;;4.50;;
31716;SDS011;18301;51.076;17.046;2022-08-20T16:40:22;9.70;;;4.80;;
31716;SDS011;18301;51.076;17.046;2022-08-20T16:45:29;8.82;;;5.63;;
31716;SDS011;18301;51.076;17.046;2022-08-20T16:50:37;9.63;;;5.25;;
31716;SDS011;18301;51.076;17.046;2022-08-20T16:55:57;10.10;;;5.85;;
31716;SDS011;18301;51.076;17.046;2022-08-20T17:01:06;8.93;;;5.97;;
31716;SDS011;18301;51.076;17.046;2022-08-20T17:06:53;13.07;;;5.57;;
31716;SDS011;18301;51.076;17.046;2022-08-20T17:11:47;6.47;;;5.05;;
31716;SDS011;18301;51.076;17.046;2022-08-20T17:16:49;7.28;;;5.72;;
31716;SDS011;18301;51.076;17.046;2022-08-20T17:21:52;7.20;;;4.85;;
31716;SDS011;18301;51.076;17.046;2022-08-20T17:31:58;8.30;;;5.40;;
31716;SDS011;18301;51.076;17.046;2022-08-20T17:37:23;6.82;;;5.28;;
31716;SDS011;18301;51.076;17.046;2022-08-20T17:42:27;6.50;;;4.95;;
31716;SDS011;18301;51.076;17.046;2022-08-20T17:47:30;6.07;;;4.22;;
31716;SDS011;18301;51.076;17.046;2022-08-20T17:52:38;6.07;;;4.20;;
31716;SDS011;18301;51.076;17.046;2022-08-20T17:57:54;5.38;;;4.18;;
31716;SDS011;18301;51.076;17.046;2022-08-20T18:03:12;7.05;;;4.70;;
31716;SDS011;18301;51.076;17.046;2022-08-20T18:18:57;7.05;;;4.28;;
31716;SDS011;18301;51.076;17.046;2022-08-20T18:24:11;6.50;;;4.70;;
31716;SDS011;18301;51.076;17.046;2022-08-20T18:29:17;5.55;;;4.20;;
31716;SDS011;18301;51.076;17.046;2022-08-20T18:39:30;4.50;;;3.83;;
31716;SDS011;18301;51.076;17.046;2022-08-20T18:44:42;5.25;;;3.25;;
31716;SDS011;18301;51.076;17.046;2022-08-20T18:49:46;5.80;;;3.73;;
31716;SDS011;18301;51.076;17.046;2022-08-20T18:55:27;3.85;;;3.38;;
31716;SDS011;18301;51.076;17.046;2022-08-20T19:00:40;4.70;;;3.53;;
31716;SDS011;18301;51.076;17.046;2022-08-20T19:10:57;6.72;;;3.55;;
31716;SDS011;18301;51.076;17.046;2022-08-20T19:16:17;5.53;;;3.65;;
31716;SDS011;18301;51.076;17.046;2022-08-20T19:21:26;4.80;;;3.90;;
31716;SDS011;18301;51.076;17.046;2022-08-20T19:26:38;5.10;;;3.88;;
31716;SDS011;18301;51.076;17.046;2022-08-20T19:31:43;7.00;;;3.70;;
31716;SDS011;18301;51.076;17.046;2022-08-20T19:36:44;6.10;;;4.18;;
31716;SDS011;18301;51.076;17.046;2022-08-20T19:46:56;6.00;;;4.45;;
31716;SDS011;18301;51.076;17.046;2022-08-20T19:57:20;7.25;;;5.15;;
31716;SDS011;18301;51.076;17.046;2022-08-20T20:02:26;6.93;;;5.40;;
31716;SDS011;18301;51.076;17.046;2022-08-20T20:07:38;7.35;;;5.63;;
31716;SDS011;18301;51.076;17.046;2022-08-20T20:12:42;10.73;;;6.68;;
31716;SDS011;18301;51.076;17.046;2022-08-20T20:17:46;8.57;;;6.72;;
31716;SDS011;18301;51.076;17.046;2022-08-20T20:27:54;11.43;;;8.18;;
31716;SDS011;18301;51.076;17.046;2022-08-20T20:32:59;11.57;;;9.10;;
31716;SDS011;18301;51.076;17.046;2022-08-20T20:38:34;10.68;;;8.13;;
31716;SDS011;18301;51.076;17.046;2022-08-20T20:43:37;10.90;;;8.63;;
31716;SDS011;18301;51.076;17.046;2022-08-20T20:48:47;11.85;;;8.48;;
31716;SDS011;18301;51.076;17.046;2022-08-20T20:53:51;12.70;;;9.18;;
31716;SDS011;18301;51.076;17.046;2022-08-20T20:58:55;11.50;;;9.13;;
31716;SDS011;18301;51.076;17.046;2022-08-20T21:04:02;12.20;;;8.82;;
31716;SDS011;18301;51.076;17.046;2022-08-20T21:09:04;11.50;;;8.30;;
31716;SDS011;18301;51.076;17.046;2022-08-20T21:14:06;10.75;;;8.20;;
31716;SDS011;18301;51.076;17.046;2022-08-20T21:19:07;10.68;;;7.97;;
31716;SDS011;18301;51.076;17.046;2022-08-20T21:24:11;9.77;;;7.60;;
31716;SDS011;18301;51.076;17.046;2022-08-20T21:29:14;9.82;;;7.05;;
31716;SDS011;18301;51.076;17.046;2022-08-20T21:34:17;9.05;;;7.03;;
31716;SDS011;18301;51.076;17.046;2022-08-20T21:39:19;8.25;;;6.72;;
31716;SDS011;18301;51.076;17.046;2022-08-20T21:44:22;9.27;;;7.13;;
31716;SDS011;18301;51.076;17.046;2022-08-20T21:49:30;8.10;;;6.57;;
31716;SDS011;18301;51.076;17.046;2022-08-20T21:54:31;7.93;;;6.07;;
31716;SDS011;18301;51.076;17.046;2022-08-20T21:59:34;8.63;;;6.80;;
31716;SDS011;18301;51.076;17.046;2022-08-20T22:04:38;8.18;;;6.70;;
31716;SDS011;18301;51.076;17.046;2022-08-20T22:09:39;8.38;;;6.70;;
31716;SDS011;18301;51.076;17.046;2022-08-20T22:14:41;8.88;;;7.05;;
31716;SDS011;18301;51.076;17.046;2022-08-20T22:19:43;8.65;;;6.45;;
31716;SDS011;18301;51.076;17.046;2022-08-20T22:24:45;8.23;;;6.30;;
31716;SDS011;18301;51.076;17.046;2022-08-20T22:29:47;7.82;;;7.03;;
31716;SDS011;18301;51.076;17.046;2022-08-20T22:34:49;8.55;;;7.22;;
31716;SDS011;18301;51.076;17.046;2022-08-20T22:39:50;8.45;;;6.65;;
31716;SDS011;18301;51.076;17.046;2022-08-20T22:44:52;7.90;;;5.40;;
31716;SDS011;18301;51.076;17.046;2022-08-20T22:49:54;8.88;;;6.85;;
31716;SDS011;18301;51.076;17.046;2022-08-20T22:54:57;8.70;;;7.03;;
31716;SDS011;18301;51.076;17.046;2022-08-20T22:59:59;7.28;;;6.30;;
31716;SDS011;18301;51.076;17.046;2022-08-20T23:05:01;9.60;;;7.75;;
31716;SDS011;18301;51.076;17.046;2022-08-20T23:10:03;9.27;;;7.80;;
31716;SDS011;18301;51.076;17.046;2022-08-20T23:15:05;8.38;;;6.95;;
31716;SDS011;18301;51.076;17.046;2022-08-20T23:20:08;9.90;;;8.00;;
31716;SDS011;18301;51.076;17.046;2022-08-20T23:25:14;9.43;;;7.93;;
31716;SDS011;18301;51.076;17.046;2022-08-20T23:30:16;7.70;;;6.65;;
31716;SDS011;18301;51.076;17.046;2022-08-20T23:35:20;11.00;;;8.55;;
31716;SDS011;18301;51.076;17.046;2022-08-20T23:40:26;11.57;;;8.45;;
31716;SDS011;18301;51.076;17.046;2022-08-20T23:45:29;8.07;;;6.75;;
31716;SDS011;18301;51.076;17.046;2022-08-20T23:50:31;9.40;;;8.07;;
31716;SDS011;18301;51.076;17.046;2022-08-20T23:55:33;12.20;;;8.23;;
